sensor_id;sensor_type;location;lat;lon;timestamp;P1;durP1;ratioP1;P2;durP2;ratioP2
7587;SDS011;3835;48.850;8.938;2023-04-09T00:01:00;22.13;;;20.33;;
7587;SDS011;3835;48.850;8.938;2023-04-09T00:03:29;22.77;;;20.97;;
7587;SDS011;3835;48.850;8.938;2023-04-09T00:05:56;20.00;;;18.40;;
7587;SDS011;3835;48.850;8.938;2023-04-09T00:08:23;21.17;;;19.47;;
7587;SDS011;3835;48.850;8.938;2023-04-09T00:10:49;20.03;;;18.43;;
7587;SDS011;3835;48.850;8.938;2023-04-09T00:13:16;22.13;;;20.43;;
7587;SDS011;3835;48.850;8.938;2023-04-09T00:15:43;23.03;;;21.07;;
7587;SDS011;3835;48.850;8.938;2023-04-09T00:18:10;23.53;;;21.60;;
7587;SDS011;3835;48.850;8.938;2023-04-09T00:20:39;24.23;;;22.33;;
7587;SDS011;3835;48.850;8.938;2023-04-09T00:23:05;25.83;;;23.93;;
7587;SDS011;3835;48.850;8.938;2023-04-09T00:25:32;26.13;;;24.10;;
7587;SDS011;3835;48.850;8.938;2023-04-09T00:27:59;27.33;;;25.33;;
7587;SDS011;3835;48.850;8.938;2023-04-09T00:30:27;28.13;;;26.00;;
7587;SDS011;3835;48.850;8.938;2023-04-09T00:32:54;31.03;;;28.73;;
7587;SDS011;3835;48.850;8.938;2023-04-09T00:35:21;29.73;;;27.43;;
7587;SDS011;3835;48.850;8.938;2023-04-09T00:37:49;29.70;;;27.27;;
7587;SDS011;3835;48.850;8.938;2023-04-09T00:40:16;27.60;;;25.50;;
7587;SDS011;3835;48.850;8.938;2023-04-09T00:42:42;26.30;;;24.30;;
7587;SDS011;3835;48.850;8.938;2023-04-09T00:45:09;25.43;;;23.43;;
7587;SDS011;3835;48.850;8.938;2023-04-09T00:47:36;24.80;;;22.77;;
7587;SDS011;3835;48.850;8.938;2023-04-09T00:50:03;27.07;;;25.07;;
7587;SDS011;3835;48.850;8.938;2023-04-09T00:52:31;27.17;;;25.07;;
7587;SDS011;3835;48.850;8.938;2023-04-09T00:54:59;27.50;;;25.43;;
7587;SDS011;3835;48.850;8.938;2023-04-09T00:57:28;22.40;;;20.60;;
7587;SDS011;3835;48.850;8.938;2023-04-09T00:59:55;25.23;;;23.23;;
7587;SDS011;3835;48.850;8.938;2023-04-09T01:02:22;24.53;;;22.50;;
7587;SDS011;3835;48.850;8.938;2023-04-09T01:04:49;21.73;;;19.90;;
7587;SDS011;3835;48.850;8.938;2023-04-09T01:07:18;21.20;;;19.40;;
7587;SDS011;3835;48.850;8.938;2023-04-09T01:09:52;21.30;;;19.30;;
7587;SDS011;3835;48.850;8.938;2023-04-09T01:12:28;21.33;;;19.43;;
7587;SDS011;3835;48.850;8.938;2023-04-09T01:15:02;21.40;;;19.50;;
7587;SDS011;3835;48.850;8.938;2023-04-09T01:17:32;21.00;;;19.13;;
7587;SDS011;3835;48.850;8.938;2023-04-09T01:20:04;23.27;;;21.27;;
7587;SDS011;3835;48.850;8.938;2023-04-09T01:22:39;21.70;;;19.73;;
7587;SDS011;3835;48.850;8.938;2023-04-09T01:25:18;23.30;;;21.07;;
7587;SDS011;3835;48.850;8.938;2023-04-09T01:28:02;23.07;;;20.97;;
7587;SDS011;3835;48.850;8.938;2023-04-09T01:30:37;20.73;;;18.87;;
7587;SDS011;3835;48.850;8.938;2023-04-09T01:33:06;22.43;;;20.43;;
7587;SDS011;3835;48.850;8.938;2023-04-09T01:35:34;23.27;;;21.07;;
7587;SDS011;3835;48.850;8.938;2023-04-09T01:38:01;23.87;;;22.00;;
7587;SDS011;3835;48.850;8.938;2023-04-09T01:40:30;25.17;;;22.93;;
7587;SDS011;3835;48.850;8.938;2023-04-09T01:42:56;24.67;;;22.87;;
7587;SDS011;3835;48.850;8.938;2023-04-09T01:45:26;23.70;;;21.70;;
7587;SDS011;3835;48.850;8.938;2023-04-09T01:47:53;23.57;;;21.43;;
7587;SDS011;3835;48.850;8.938;2023-04-09T01:50:21;23.77;;;21.83;;
7587;SDS011;3835;48.850;8.938;2023-04-09T01:52:48;25.97;;;23.70;;
7587;SDS011;3835;48.850;8.938;2023-04-09T01:55:15;24.93;;;22.87;;
7587;SDS011;3835;48.850;8.938;2023-04-09T01:57:42;23.90;;;21.80;;
7587;SDS011;3835;48.850;8.938;2023-04-09T02:00:09;24.43;;;22.23;;
7587;SDS011;3835;48.850;8.938;2023-04-09T02:02:40;22.30;;;20.20;;
7587;SDS011;3835;48.850;8.938;2023-04-09T02:05:12;22.07;;;20.07;;
7587;SDS011;3835;48.850;8.938;2023-04-09T02:07:44;21.77;;;19.90;;
7587;SDS011;3835;48.850;8.938;2023-04-09T02:10:15;23.03;;;21.10;;
7587;SDS011;3835;48.850;8.938;2023-04-09T02:12:46;24.43;;;22.53;;
7587;SDS011;3835;48.850;8.938;2023-04-09T02:15:16;25.10;;;23.07;;
7587;SDS011;3835;48.850;8.938;2023-04-09T02:17:45;23.47;;;21.43;;
7587;SDS011;3835;48.850;8.938;2023-04-09T02:20:15;23.27;;;21.27;;
7587;SDS011;3835;48.850;8.938;2023-04-09T02:22:42;22.53;;;20.67;;
7587;SDS011;3835;48.850;8.938;2023-04-09T02:25:09;24.67;;;22.67;;
7587;SDS011;3835;48.850;8.938;2023-04-09T02:27:36;24.63;;;22.53;;
7587;SDS011;3835;48.850;8.938;2023-04-09T02:30:03;24.83;;;23.00;;
7587;SDS011;3835;48.850;8.938;2023-04-09T02:32:30;23.70;;;21.67;;
7587;SDS011;3835;48.850;8.938;2023-04-09T02:34:58;23.60;;;21.70;;
7587;SDS011;3835;48.850;8.938;2023-04-09T02:37:25;23.90;;;21.80;;
7587;SDS011;3835;48.850;8.938;2023-04-09T02:39:52;22.77;;;20.77;;
7587;SDS011;3835;48.850;8.938;2023-04-09T02:42:19;22.17;;;20.17;;
7587;SDS011;3835;48.850;8.938;2023-04-09T02:44:45;21.93;;;20.13;;
7587;SDS011;3835;48.850;8.938;2023-04-09T02:47:12;22.10;;;20.33;;
7587;SDS011;3835;48.850;8.938;2023-04-09T02:49:39;23.57;;;21.57;;
7587;SDS011;3835;48.850;8.938;2023-04-09T02:52:08;21.57;;;19.67;;
7587;SDS011;3835;48.850;8.938;2023-04-09T02:54:35;20.23;;;18.57;;
7587;SDS011;3835;48.850;8.938;2023-04-09T02:57:02;19.77;;;18.13;;
7587;SDS011;3835;48.850;8.938;2023-04-09T02:59:28;21.27;;;19.43;;
7587;SDS011;3835;48.850;8.938;2023-04-09T03:01:56;21.53;;;19.63;;
7587;SDS011;3835;48.850;8.938;2023-04-09T03:04:23;21.17;;;19.37;;
7587;SDS011;3835;48.850;8.938;2023-04-09T03:06:50;20.60;;;18.90;;
7587;SDS011;3835;48.850;8.938;2023-04-09T03:09:18;20.73;;;18.93;;
7587;SDS011;3835;48.850;8.938;2023-04-09T03:11:45;20.73;;;18.93;;
7587;SDS011;3835;48.850;8.938;2023-04-09T03:14:11;21.37;;;19.50;;
7587;SDS011;3835;48.850;8.938;2023-04-09T03:16:38;21.67;;;19.87;;
7587;SDS011;3835;48.850;8.938;2023-04-09T03:19:05;21.23;;;19.53;;
7587;SDS011;3835;48.850;8.938;2023-04-09T03:21:32;20.17;;;18.57;;
7587;SDS011;3835;48.850;8.938;2023-04-09T03:23:58;21.70;;;19.83;;
7587;SDS011;3835;48.850;8.938;2023-04-09T03:26:27;21.90;;;20.17;;
7587;SDS011;3835;48.850;8.938;2023-04-09T03:29:00;21.63;;;19.73;;
7587;SDS011;3835;48.850;8.938;2023-04-09T03:31:26;21.07;;;19.27;;
7587;SDS011;3835;48.850;8.938;2023-04-09T03:33:53;23.40;;;21.50;;
7587;SDS011;3835;48.850;8.938;2023-04-09T03:36:20;22.27;;;20.30;;
7587;SDS011;3835;48.850;8.938;2023-04-09T03:38:47;21.73;;;19.83;;
7587;SDS011;3835;48.850;8.938;2023-04-09T03:41:14;21.70;;;19.70;;
7587;SDS011;3835;48.850;8.938;2023-04-09T03:43:42;23.20;;;21.20;;
7587;SDS011;3835;48.850;8.938;2023-04-09T03:46:12;23.03;;;21.03;;
7587;SDS011;3835;48.850;8.938;2023-04-09T03:48:39;23.17;;;21.10;;
7587;SDS011;3835;48.850;8.938;2023-04-09T03:51:09;23.03;;;20.97;;
7587;SDS011;3835;48.850;8.938;2023-04-09T03:53:37;24.00;;;21.93;;
7587;SDS011;3835;48.850;8.938;2023-04-09T03:56:03;23.67;;;21.63;;
7587;SDS011;3835;48.850;8.938;2023-04-09T03:58:30;23.17;;;20.87;;
7587;SDS011;3835;48.850;8.938;2023-04-09T04:00:59;22.20;;;20.33;;
7587;SDS011;3835;48.850;8.938;2023-04-09T04:03:25;21.73;;;19.63;;
7587;SDS011;3835;48.850;8.938;2023-04-09T04:05:52;21.87;;;19.83;;
7587;SDS011;3835;48.850;8.938;2023-04-09T04:08:19;20.90;;;19.10;;
7587;SDS011;3835;48.850;8.938;2023-04-09T04:10:45;23.23;;;21.23;;
7587;SDS011;3835;48.850;8.938;2023-04-09T04:13:12;24.57;;;22.17;;
7587;SDS011;3835;48.850;8.938;2023-04-09T04:15:39;22.83;;;20.63;;
7587;SDS011;3835;48.850;8.938;2023-04-09T04:18:08;24.67;;;22.23;;
7587;SDS011;3835;48.850;8.938;2023-04-09T04:20:35;23.73;;;21.47;;
7587;SDS011;3835;48.850;8.938;2023-04-09T04:23:03;24.73;;;22.37;;
7587;SDS011;3835;48.850;8.938;2023-04-09T04:25:30;22.50;;;20.50;;
7587;SDS011;3835;48.850;8.938;2023-04-09T04:27:57;23.97;;;21.70;;
7587;SDS011;3835;48.850;8.938;2023-04-09T04:30:24;26.00;;;23.57;;
7587;SDS011;3835;48.850;8.938;2023-04-09T04:32:50;27.70;;;25.03;;
7587;SDS011;3835;48.850;8.938;2023-04-09T04:35:19;25.23;;;22.83;;
7587;SDS011;3835;48.850;8.938;2023-04-09T04:37:48;27.27;;;24.47;;
7587;SDS011;3835;48.850;8.938;2023-04-09T04:40:15;25.53;;;23.13;;
7587;SDS011;3835;48.850;8.938;2023-04-09T04:42:42;25.83;;;23.33;;
7587;SDS011;3835;48.850;8.938;2023-04-09T04:45:08;25.50;;;22.90;;
7587;SDS011;3835;48.850;8.938;2023-04-09T04:47:35;24.77;;;22.50;;
7587;SDS011;3835;48.850;8.938;2023-04-09T04:50:02;23.60;;;21.33;;
7587;SDS011;3835;48.850;8.938;2023-04-09T04:52:31;24.67;;;22.20;;
7587;SDS011;3835;48.850;8.938;2023-04-09T04:54:57;24.80;;;22.47;;
7587;SDS011;3835;48.850;8.938;2023-04-09T04:57:24;23.53;;;21.33;;
7587;SDS011;3835;48.850;8.938;2023-04-09T04:59:51;24.23;;;21.83;;
7587;SDS011;3835;48.850;8.938;2023-04-09T05:02:18;25.27;;;22.67;;
7587;SDS011;3835;48.850;8.938;2023-04-09T05:04:44;24.60;;;22.20;;
7587;SDS011;3835;48.850;8.938;2023-04-09T05:07:11;24.03;;;21.63;;
7587;SDS011;3835;48.850;8.938;2023-04-09T05:09:39;24.07;;;21.77;;
7587;SDS011;3835;48.850;8.938;2023-04-09T05:12:06;23.87;;;21.57;;
7587;SDS011;3835;48.850;8.938;2023-04-09T05:14:34;24.70;;;22.50;;
7587;SDS011;3835;48.850;8.938;2023-04-09T05:17:01;23.53;;;21.47;;
7587;SDS011;3835;48.850;8.938;2023-04-09T05:19:28;23.17;;;21.07;;
7587;SDS011;3835;48.850;8.938;2023-04-09T05:21:54;27.30;;;24.53;;
7587;SDS011;3835;48.850;8.938;2023-04-09T05:24:21;26.13;;;23.53;;
7587;SDS011;3835;48.850;8.938;2023-04-09T05:26:49;25.63;;;23.03;;
7587;SDS011;3835;48.850;8.938;2023-04-09T05:29:16;25.67;;;23.47;;
7587;SDS011;3835;48.850;8.938;2023-04-09T05:31:43;24.27;;;21.90;;
7587;SDS011;3835;48.850;8.938;2023-04-09T05:34:10;25.77;;;23.47;;
7587;SDS011;3835;48.850;8.938;2023-04-09T05:36:36;25.60;;;23.20;;
7587;SDS011;3835;48.850;8.938;2023-04-09T05:39:03;28.23;;;25.40;;
7587;SDS011;3835;48.850;8.938;2023-04-09T05:41:30;28.53;;;25.90;;
7587;SDS011;3835;48.850;8.938;2023-04-09T05:43:58;26.20;;;23.80;;
7587;SDS011;3835;48.850;8.938;2023-04-09T05:46:25;26.73;;;24.10;;
7587;SDS011;3835;48.850;8.938;2023-04-09T05:48:52;25.23;;;22.87;;
7587;SDS011;3835;48.850;8.938;2023-04-09T05:51:19;24.73;;;22.33;;
7587;SDS011;3835;48.850;8.938;2023-04-09T05:53:46;24.90;;;22.70;;
7587;SDS011;3835;48.850;8.938;2023-04-09T05:56:13;26.37;;;23.57;;
7587;SDS011;3835;48.850;8.938;2023-04-09T05:58:41;26.33;;;23.73;;
7587;SDS011;3835;48.850;8.938;2023-04-09T06:01:09;28.33;;;25.37;;
7587;SDS011;3835;48.850;8.938;2023-04-09T06:03:36;29.40;;;26.27;;
7587;SDS011;3835;48.850;8.938;2023-04-09T06:06:02;27.30;;;24.60;;
7587;SDS011;3835;48.850;8.938;2023-04-09T06:08:30;23.73;;;21.53;;
7587;SDS011;3835;48.850;8.938;2023-04-09T06:10:57;25.73;;;23.37;;
7587;SDS011;3835;48.850;8.938;2023-04-09T06:13:24;24.83;;;22.47;;
7587;SDS011;3835;48.850;8.938;2023-04-09T06:15:51;26.00;;;23.60;;
7587;SDS011;3835;48.850;8.938;2023-04-09T06:18:19;24.33;;;22.13;;
7587;SDS011;3835;48.850;8.938;2023-04-09T06:20:46;24.33;;;22.03;;
7587;SDS011;3835;48.850;8.938;2023-04-09T06:23:12;24.73;;;22.47;;
7587;SDS011;3835;48.850;8.938;2023-04-09T06:25:39;23.83;;;21.53;;
7587;SDS011;3835;48.850;8.938;2023-04-09T06:28:06;22.60;;;20.40;;
7587;SDS011;3835;48.850;8.938;2023-04-09T06:30:33;25.70;;;23.30;;
7587;SDS011;3835;48.850;8.938;2023-04-09T06:33:00;25.50;;;22.93;;
7587;SDS011;3835;48.850;8.938;2023-04-09T06:35:29;25.93;;;23.33;;
7587;SDS011;3835;48.850;8.938;2023-04-09T06:37:56;26.63;;;24.00;;
7587;SDS011;3835;48.850;8.938;2023-04-09T06:40:22;25.83;;;23.50;;
7587;SDS011;3835;48.850;8.938;2023-04-09T06:42:49;26.83;;;24.30;;
7587;SDS011;3835;48.850;8.938;2023-04-09T06:45:16;21.53;;;19.70;;
7587;SDS011;3835;48.850;8.938;2023-04-09T06:47:43;24.00;;;21.83;;
7587;SDS011;3835;48.850;8.938;2023-04-09T06:50:09;22.83;;;20.80;;
7587;SDS011;3835;48.850;8.938;2023-04-09T06:52:37;22.93;;;20.83;;
7587;SDS011;3835;48.850;8.938;2023-04-09T06:55:04;23.03;;;20.93;;
7587;SDS011;3835;48.850;8.938;2023-04-09T06:57:31;25.20;;;22.93;;
7587;SDS011;3835;48.850;8.938;2023-04-09T06:59:58;25.67;;;23.50;;
7587;SDS011;3835;48.850;8.938;2023-04-09T07:02:25;24.87;;;22.77;;
7587;SDS011;3835;48.850;8.938;2023-04-09T07:04:52;27.03;;;24.70;;
7587;SDS011;3835;48.850;8.938;2023-04-09T07:07:19;24.30;;;22.30;;
7587;SDS011;3835;48.850;8.938;2023-04-09T07:09:47;24.07;;;21.93;;
7587;SDS011;3835;48.850;8.938;2023-04-09T07:12:17;22.90;;;20.87;;
7587;SDS011;3835;48.850;8.938;2023-04-09T07:14:51;23.47;;;21.40;;
7587;SDS011;3835;48.850;8.938;2023-04-09T07:17:18;22.50;;;20.50;;
7587;SDS011;3835;48.850;8.938;2023-04-09T07:19:45;23.63;;;21.63;;
7587;SDS011;3835;48.850;8.938;2023-04-09T07:22:12;22.03;;;19.93;;
7587;SDS011;3835;48.850;8.938;2023-04-09T07:24:38;22.33;;;20.33;;
7587;SDS011;3835;48.850;8.938;2023-04-09T07:27:07;23.30;;;21.07;;
7587;SDS011;3835;48.850;8.938;2023-04-09T07:29:33;21.60;;;19.60;;
7587;SDS011;3835;48.850;8.938;2023-04-09T07:32:00;23.10;;;21.10;;
7587;SDS011;3835;48.850;8.938;2023-04-09T07:34:27;22.63;;;20.57;;
7587;SDS011;3835;48.850;8.938;2023-04-09T07:36:54;23.40;;;21.40;;
7587;SDS011;3835;48.850;8.938;2023-04-09T07:39:21;22.50;;;20.67;;
7587;SDS011;3835;48.850;8.938;2023-04-09T07:41:47;23.40;;;21.40;;
7587;SDS011;3835;48.850;8.938;2023-04-09T07:44:16;22.60;;;20.53;;
7587;SDS011;3835;48.850;8.938;2023-04-09T07:46:42;21.63;;;19.83;;
7587;SDS011;3835;48.850;8.938;2023-04-09T07:49:09;20.87;;;19.07;;
7587;SDS011;3835;48.850;8.938;2023-04-09T07:51:36;21.13;;;19.23;;
7587;SDS011;3835;48.850;8.938;2023-04-09T07:54:03;20.27;;;18.53;;
7587;SDS011;3835;48.850;8.938;2023-04-09T07:56:29;20.87;;;19.13;;
7587;SDS011;3835;48.850;8.938;2023-04-09T07:58:56;20.67;;;18.80;;
7587;SDS011;3835;48.850;8.938;2023-04-09T08:01:24;21.40;;;19.37;;
7587;SDS011;3835;48.850;8.938;2023-04-09T08:03:51;21.43;;;19.53;;
7587;SDS011;3835;48.850;8.938;2023-04-09T08:06:18;19.67;;;17.97;;
7587;SDS011;3835;48.850;8.938;2023-04-09T08:08:44;20.20;;;18.53;;
7587;SDS011;3835;48.850;8.938;2023-04-09T08:11:11;19.73;;;18.03;;
7587;SDS011;3835;48.850;8.938;2023-04-09T08:13:38;20.33;;;18.73;;
7587;SDS011;3835;48.850;8.938;2023-04-09T08:16:05;21.03;;;19.23;;
7587;SDS011;3835;48.850;8.938;2023-04-09T08:18:33;19.43;;;17.93;;
7587;SDS011;3835;48.850;8.938;2023-04-09T08:21:03;17.90;;;16.40;;
7587;SDS011;3835;48.850;8.938;2023-04-09T08:23:30;18.67;;;17.27;;
7587;SDS011;3835;48.850;8.938;2023-04-09T08:25:56;20.47;;;18.77;;
7587;SDS011;3835;48.850;8.938;2023-04-09T08:28:23;20.07;;;18.50;;
7587;SDS011;3835;48.850;8.938;2023-04-09T08:30:50;18.13;;;16.63;;
7587;SDS011;3835;48.850;8.938;2023-04-09T08:33:17;18.87;;;17.37;;
7587;SDS011;3835;48.850;8.938;2023-04-09T08:35:45;19.70;;;18.07;;
7587;SDS011;3835;48.850;8.938;2023-04-09T08:38:12;17.10;;;15.70;;
7587;SDS011;3835;48.850;8.938;2023-04-09T08:40:39;19.23;;;17.70;;
7587;SDS011;3835;48.850;8.938;2023-04-09T08:43:07;16.57;;;15.37;;
7587;SDS011;3835;48.850;8.938;2023-04-09T08:45:35;15.47;;;14.27;;
7587;SDS011;3835;48.850;8.938;2023-04-09T08:48:02;15.53;;;14.27;;
7587;SDS011;3835;48.850;8.938;2023-04-09T08:50:30;14.90;;;13.73;;
7587;SDS011;3835;48.850;8.938;2023-04-09T08:52:59;14.87;;;13.93;;
7587;SDS011;3835;48.850;8.938;2023-04-09T08:55:27;63.10;;;59.37;;
7587;SDS011;3835;48.850;8.938;2023-04-09T08:57:55;15.13;;;14.03;;
7587;SDS011;3835;48.850;8.938;2023-04-09T09:00:22;14.27;;;13.27;;
7587;SDS011;3835;48.850;8.938;2023-04-09T09:03:02;14.80;;;13.70;;
7587;SDS011;3835;48.850;8.938;2023-04-09T09:05:35;15.47;;;14.47;;
7587;SDS011;3835;48.850;8.938;2023-04-09T09:08:05;14.43;;;13.43;;
7587;SDS011;3835;48.850;8.938;2023-04-09T09:10:35;15.47;;;14.27;;
7587;SDS011;3835;48.850;8.938;2023-04-09T09:13:12;15.17;;;14.17;;
7587;SDS011;3835;48.850;8.938;2023-04-09T09:15:42;13.93;;;12.93;;
7587;SDS011;3835;48.850;8.938;2023-04-09T09:18:10;15.30;;;14.30;;
7587;SDS011;3835;48.850;8.938;2023-04-09T09:20:37;13.93;;;13.03;;
7587;SDS011;3835;48.850;8.938;2023-04-09T09:23:05;13.30;;;12.50;;
7587;SDS011;3835;48.850;8.938;2023-04-09T09:25:36;14.57;;;13.47;;
7587;SDS011;3835;48.850;8.938;2023-04-09T09:28:07;16.87;;;15.17;;
7587;SDS011;3835;48.850;8.938;2023-04-09T09:30:35;13.60;;;12.80;;
7587;SDS011;3835;48.850;8.938;2023-04-09T09:33:04;12.10;;;11.40;;
7587;SDS011;3835;48.850;8.938;2023-04-09T09:35:45;12.63;;;11.83;;
7587;SDS011;3835;48.850;8.938;2023-04-09T09:38:15;11.77;;;11.17;;
7587;SDS011;3835;48.850;8.938;2023-04-09T09:40:42;14.30;;;13.17;;
7587;SDS011;3835;48.850;8.938;2023-04-09T09:43:09;12.17;;;11.47;;
7587;SDS011;3835;48.850;8.938;2023-04-09T09:45:36;11.90;;;11.23;;
7587;SDS011;3835;48.850;8.938;2023-04-09T09:48:05;13.53;;;12.73;;
7587;SDS011;3835;48.850;8.938;2023-04-09T09:50:33;12.80;;;11.90;;
7587;SDS011;3835;48.850;8.938;2023-04-09T09:53:02;12.67;;;11.87;;
7587;SDS011;3835;48.850;8.938;2023-04-09T09:55:32;12.43;;;11.50;;
7587;SDS011;3835;48.850;8.938;2023-04-09T09:58:05;11.43;;;10.73;;
7587;SDS011;3835;48.850;8.938;2023-04-09T10:00:36;12.27;;;11.57;;
7587;SDS011;3835;48.850;8.938;2023-04-09T10:03:06;11.93;;;11.33;;
7587;SDS011;3835;48.850;8.938;2023-04-09T10:05:37;12.03;;;11.43;;
7587;SDS011;3835;48.850;8.938;2023-04-09T10:08:05;11.50;;;10.80;;
7587;SDS011;3835;48.850;8.938;2023-04-09T10:10:34;12.73;;;12.03;;
7587;SDS011;3835;48.850;8.938;2023-04-09T10:13:02;12.17;;;11.47;;
7587;SDS011;3835;48.850;8.938;2023-04-09T10:15:32;12.00;;;11.30;;
7587;SDS011;3835;48.850;8.938;2023-04-09T10:17:59;13.00;;;12.27;;
7587;SDS011;3835;48.850;8.938;2023-04-09T10:20:27;12.47;;;11.83;;
7587;SDS011;3835;48.850;8.938;2023-04-09T10:25:29;12.40;;;11.70;;
7587;SDS011;3835;48.850;8.938;2023-04-09T10:28:01;11.27;;;10.67;;
7587;SDS011;3835;48.850;8.938;2023-04-09T10:30:31;12.57;;;11.90;;
7587;SDS011;3835;48.850;8.938;2023-04-09T10:33:07;11.70;;;11.07;;
7587;SDS011;3835;48.850;8.938;2023-04-09T10:35:38;12.13;;;11.33;;
7587;SDS011;3835;48.850;8.938;2023-04-09T10:38:08;13.17;;;12.33;;
7587;SDS011;3835;48.850;8.938;2023-04-09T10:40:38;12.23;;;11.43;;
7587;SDS011;3835;48.850;8.938;2023-04-09T10:43:07;14.47;;;13.57;;
7587;SDS011;3835;48.850;8.938;2023-04-09T10:45:38;14.00;;;13.03;;
7587;SDS011;3835;48.850;8.938;2023-04-09T10:48:10;13.97;;;13.07;;
7587;SDS011;3835;48.850;8.938;2023-04-09T10:50:38;13.37;;;12.47;;
7587;SDS011;3835;48.850;8.938;2023-04-09T10:53:10;13.97;;;13.07;;
7587;SDS011;3835;48.850;8.938;2023-04-09T10:55:48;15.93;;;14.90;;
7587;SDS011;3835;48.850;8.938;2023-04-09T10:58:17;15.23;;;14.27;;
7587;SDS011;3835;48.850;8.938;2023-04-09T11:00:45;15.17;;;14.17;;
7587;SDS011;3835;48.850;8.938;2023-04-09T11:03:20;11.67;;;10.93;;
7587;SDS011;3835;48.850;8.938;2023-04-09T11:05:53;12.40;;;11.70;;
7587;SDS011;3835;48.850;8.938;2023-04-09T11:08:27;11.17;;;10.57;;
7587;SDS011;3835;48.850;8.938;2023-04-09T11:10:55;11.73;;;11.13;;
7587;SDS011;3835;48.850;8.938;2023-04-09T11:13:26;11.17;;;10.67;;
7587;SDS011;3835;48.850;8.938;2023-04-09T11:15:54;12.10;;;11.50;;
7587;SDS011;3835;48.850;8.938;2023-04-09T11:18:22;12.40;;;11.67;;
7587;SDS011;3835;48.850;8.938;2023-04-09T11:20:53;11.90;;;11.20;;
7587;SDS011;3835;48.850;8.938;2023-04-09T11:23:20;11.97;;;11.27;;
7587;SDS011;3835;48.850;8.938;2023-04-09T11:25:48;12.63;;;11.83;;
7587;SDS011;3835;48.850;8.938;2023-04-09T11:28:15;11.07;;;10.57;;
7587;SDS011;3835;48.850;8.938;2023-04-09T11:30:44;12.20;;;11.60;;
7587;SDS011;3835;48.850;8.938;2023-04-09T11:33:13;10.70;;;10.10;;
7587;SDS011;3835;48.850;8.938;2023-04-09T11:35:40;11.13;;;10.63;;
7587;SDS011;3835;48.850;8.938;2023-04-09T11:38:07;13.10;;;12.40;;
7587;SDS011;3835;48.850;8.938;2023-04-09T11:40:35;12.57;;;11.87;;
7587;SDS011;3835;48.850;8.938;2023-04-09T11:43:07;12.63;;;11.93;;
7587;SDS011;3835;48.850;8.938;2023-04-09T11:45:34;12.10;;;11.43;;
7587;SDS011;3835;48.850;8.938;2023-04-09T11:48:02;13.00;;;12.37;;
7587;SDS011;3835;48.850;8.938;2023-04-09T11:50:29;12.47;;;11.77;;
7587;SDS011;3835;48.850;8.938;2023-04-09T11:52:57;12.53;;;11.83;;
7587;SDS011;3835;48.850;8.938;2023-04-09T11:55:24;13.97;;;13.17;;
7587;SDS011;3835;48.850;8.938;2023-04-09T11:57:52;13.67;;;12.93;;
7587;SDS011;3835;48.850;8.938;2023-04-09T12:00:22;13.63;;;12.83;;
7587;SDS011;3835;48.850;8.938;2023-04-09T12:02:57;13.63;;;12.83;;
7587;SDS011;3835;48.850;8.938;2023-04-09T12:05:29;13.33;;;12.53;;
7587;SDS011;3835;48.850;8.938;2023-04-09T12:07:57;12.97;;;12.27;;
7587;SDS011;3835;48.850;8.938;2023-04-09T12:10:25;13.67;;;12.77;;
7587;SDS011;3835;48.850;8.938;2023-04-09T12:12:53;12.27;;;11.47;;
7587;SDS011;3835;48.850;8.938;2023-04-09T12:15:21;13.13;;;12.37;;
7587;SDS011;3835;48.850;8.938;2023-04-09T12:17:49;13.13;;;12.27;;
7587;SDS011;3835;48.850;8.938;2023-04-09T12:20:30;12.33;;;11.57;;
7587;SDS011;3835;48.850;8.938;2023-04-09T12:22:58;13.73;;;12.73;;
7587;SDS011;3835;48.850;8.938;2023-04-09T12:25:27;13.30;;;12.50;;
7587;SDS011;3835;48.850;8.938;2023-04-09T12:27:55;14.43;;;13.57;;
7587;SDS011;3835;48.850;8.938;2023-04-09T12:30:22;14.43;;;13.53;;
7587;SDS011;3835;48.850;8.938;2023-04-09T12:32:49;13.63;;;12.63;;
7587;SDS011;3835;48.850;8.938;2023-04-09T12:35:16;13.50;;;12.70;;
7587;SDS011;3835;48.850;8.938;2023-04-09T12:37:45;13.27;;;12.47;;
7587;SDS011;3835;48.850;8.938;2023-04-09T12:40:12;13.53;;;12.67;;
7587;SDS011;3835;48.850;8.938;2023-04-09T12:42:39;14.43;;;13.63;;
7587;SDS011;3835;48.850;8.938;2023-04-09T12:45:06;12.67;;;11.90;;
7587;SDS011;3835;48.850;8.938;2023-04-09T12:47:35;14.17;;;13.27;;
7587;SDS011;3835;48.850;8.938;2023-04-09T12:50:03;13.30;;;12.47;;
7587;SDS011;3835;48.850;8.938;2023-04-09T12:52:31;13.70;;;12.90;;
7587;SDS011;3835;48.850;8.938;2023-04-09T12:54:59;13.33;;;12.53;;
7587;SDS011;3835;48.850;8.938;2023-04-09T12:57:27;13.37;;;12.57;;
7587;SDS011;3835;48.850;8.938;2023-04-09T12:59:53;13.77;;;12.97;;
7587;SDS011;3835;48.850;8.938;2023-04-09T13:02:20;14.37;;;13.53;;
7587;SDS011;3835;48.850;8.938;2023-04-09T13:04:48;13.60;;;12.73;;
7587;SDS011;3835;48.850;8.938;2023-04-09T13:07:15;13.27;;;12.47;;
7587;SDS011;3835;48.850;8.938;2023-04-09T13:09:43;13.47;;;12.63;;
7587;SDS011;3835;48.850;8.938;2023-04-09T13:12:12;14.17;;;13.27;;
7587;SDS011;3835;48.850;8.938;2023-04-09T13:14:40;14.10;;;13.10;;
7587;SDS011;3835;48.850;8.938;2023-04-09T13:17:08;15.27;;;14.37;;
7587;SDS011;3835;48.850;8.938;2023-04-09T13:19:34;14.57;;;13.70;;
7587;SDS011;3835;48.850;8.938;2023-04-09T13:22:01;14.07;;;13.17;;
7587;SDS011;3835;48.850;8.938;2023-04-09T13:24:31;14.43;;;13.53;;
7587;SDS011;3835;48.850;8.938;2023-04-09T13:26:58;14.40;;;13.50;;
7587;SDS011;3835;48.850;8.938;2023-04-09T13:29:26;14.20;;;13.33;;
7587;SDS011;3835;48.850;8.938;2023-04-09T13:31:53;13.67;;;12.77;;
7587;SDS011;3835;48.850;8.938;2023-04-09T13:34:20;13.83;;;12.97;;
7587;SDS011;3835;48.850;8.938;2023-04-09T13:36:47;13.33;;;12.53;;
7587;SDS011;3835;48.850;8.938;2023-04-09T13:39:14;12.53;;;11.73;;
7587;SDS011;3835;48.850;8.938;2023-04-09T13:41:41;13.27;;;12.47;;
7587;SDS011;3835;48.850;8.938;2023-04-09T13:44:08;13.10;;;12.30;;
7587;SDS011;3835;48.850;8.938;2023-04-09T13:46:36;14.43;;;13.53;;
7587;SDS011;3835;48.850;8.938;2023-04-09T13:49:03;14.07;;;13.23;;
7587;SDS011;3835;48.850;8.938;2023-04-09T13:51:30;14.07;;;13.30;;
7587;SDS011;3835;48.850;8.938;2023-04-09T13:53:58;13.03;;;12.23;;
7587;SDS011;3835;48.850;8.938;2023-04-09T13:56:25;15.10;;;14.20;;
7587;SDS011;3835;48.850;8.938;2023-04-09T13:58:52;14.30;;;13.43;;
7587;SDS011;3835;48.850;8.938;2023-04-09T14:01:19;13.93;;;13.17;;
7587;SDS011;3835;48.850;8.938;2023-04-09T14:03:47;14.03;;;13.23;;
7587;SDS011;3835;48.850;8.938;2023-04-09T14:06:14;13.47;;;12.67;;
7587;SDS011;3835;48.850;8.938;2023-04-09T14:08:41;15.30;;;14.40;;
7587;SDS011;3835;48.850;8.938;2023-04-09T14:11:07;13.37;;;12.67;;
7587;SDS011;3835;48.850;8.938;2023-04-09T14:13:37;14.10;;;13.30;;
7587;SDS011;3835;48.850;8.938;2023-04-09T14:16:05;14.97;;;14.07;;
7587;SDS011;3835;48.850;8.938;2023-04-09T14:18:32;14.67;;;13.77;;
7587;SDS011;3835;48.850;8.938;2023-04-09T14:21:01;13.63;;;12.83;;
7587;SDS011;3835;48.850;8.938;2023-04-09T14:23:28;13.83;;;13.03;;
7587;SDS011;3835;48.850;8.938;2023-04-09T14:25:54;13.70;;;12.90;;
7587;SDS011;3835;48.850;8.938;2023-04-09T14:28:21;13.77;;;12.97;;
7587;SDS011;3835;48.850;8.938;2023-04-09T14:30:48;13.17;;;12.37;;
7587;SDS011;3835;48.850;8.938;2023-04-09T14:33:15;12.83;;;12.03;;
7587;SDS011;3835;48.850;8.938;2023-04-09T14:35:41;12.33;;;11.60;;
7587;SDS011;3835;48.850;8.938;2023-04-09T14:38:09;13.67;;;12.77;;
7587;SDS011;3835;48.850;8.938;2023-04-09T14:40:36;13.43;;;12.63;;
7587;SDS011;3835;48.850;8.938;2023-04-09T14:43:03;12.63;;;11.83;;
7587;SDS011;3835;48.850;8.938;2023-04-09T14:45:30;14.17;;;13.37;;
7587;SDS011;3835;48.850;8.938;2023-04-09T14:47:57;13.07;;;12.27;;
7587;SDS011;3835;48.850;8.938;2023-04-09T14:50:24;13.23;;;12.53;;
7587;SDS011;3835;48.850;8.938;2023-04-09T14:52:50;14.60;;;13.80;;
7587;SDS011;3835;48.850;8.938;2023-04-09T14:55:18;13.27;;;12.47;;